Terminal Aerodrome Forecast
Issued by NWS

Home | Current Version | Previous Version | Text Only | Print | Product List | Glossary On
Versions: 1 2 3 4 5 6 7 8 9 10 11 12 13 14 15 16 17 18 19 20 21 22 23 24 25 26
000
FTUS45 KGJT 211019 AAA
TAFMTJ
TAF AMD
KMTJ 211019Z 2110/2206 12006KT P6SM SCT050 BKN100
      TEMPO 2110/2114 5SM -RA BKN060
     FM211400 14008KT P6SM VCSH SCT040 BKN070
     FM211900 03005KT P6SM SCT100 SCT180
     FM220100 16007KT P6SM VCSH SCT050 BKN080=

USA.gov is the U.S. government's official web portal to all federal, state and local government web resources and services.